sensor_id;sensor_type;location;lat;lon;timestamp;P1;durP1;ratioP1;P2;durP2;ratioP2
62941;SDS011;49042;47.318;19.874;2022-11-20T00:02:14;18.92;;;10.23;;
62941;SDS011;49042;47.318;19.874;2022-11-20T00:05:16;19.30;;;11.30;;
62941;SDS011;49042;47.318;19.874;2022-11-20T00:08:18;20.48;;;10.27;;
62941;SDS011;49042;47.318;19.874;2022-11-20T00:11:20;20.45;;;10.95;;
62941;SDS011;49042;47.318;19.874;2022-11-20T00:14:23;18.40;;;10.18;;
62941;SDS011;49042;47.318;19.874;2022-11-20T00:17:25;19.60;;;10.98;;
62941;SDS011;49042;47.318;19.874;2022-11-20T00:20:27;18.02;;;10.10;;
62941;SDS011;49042;47.318;19.874;2022-11-20T00:23:29;19.87;;;10.93;;
62941;SDS011;49042;47.318;19.874;2022-11-20T00:26:30;21.77;;;9.93;;
62941;SDS011;49042;47.318;19.874;2022-11-20T00:29:32;19.62;;;10.45;;
62941;SDS011;49042;47.318;19.874;2022-11-20T00:32:34;24.70;;;9.93;;
62941;SDS011;49042;47.318;19.874;2022-11-20T00:35:36;18.62;;;10.70;;
62941;SDS011;49042;47.318;19.874;2022-11-20T00:38:37;20.02;;;10.55;;
62941;SDS011;49042;47.318;19.874;2022-11-20T00:41:39;20.67;;;9.88;;
62941;SDS011;49042;47.318;19.874;2022-11-20T00:44:40;21.08;;;10.93;;
62941;SDS011;49042;47.318;19.874;2022-11-20T00:47:42;17.60;;;10.18;;
62941;SDS011;49042;47.318;19.874;2022-11-20T00:50:44;19.05;;;10.40;;
62941;SDS011;49042;47.318;19.874;2022-11-20T00:53:45;18.10;;;9.68;;
62941;SDS011;49042;47.318;19.874;2022-11-20T00:56:47;18.02;;;9.68;;
62941;SDS011;49042;47.318;19.874;2022-11-20T00:59:49;21.05;;;10.48;;
62941;SDS011;49042;47.318;19.874;2022-11-20T01:02:51;19.75;;;10.20;;
62941;SDS011;49042;47.318;19.874;2022-11-20T01:05:52;18.10;;;10.38;;
62941;SDS011;49042;47.318;19.874;2022-11-20T01:08:55;21.20;;;9.80;;
62941;SDS011;49042;47.318;19.874;2022-11-20T01:11:57;17.90;;;9.68;;
62941;SDS011;49042;47.318;19.874;2022-11-20T01:15:00;18.35;;;9.50;;
62941;SDS011;49042;47.318;19.874;2022-11-20T01:18:02;16.83;;;9.48;;
62941;SDS011;49042;47.318;19.874;2022-11-20T01:21:05;17.37;;;8.85;;
62941;SDS011;49042;47.318;19.874;2022-11-20T01:24:10;19.77;;;9.07;;
62941;SDS011;49042;47.318;19.874;2022-11-20T01:27:13;17.77;;;9.90;;
62941;SDS011;49042;47.318;19.874;2022-11-20T01:30:15;19.25;;;10.13;;
62941;SDS011;49042;47.318;19.874;2022-11-20T01:33:17;17.67;;;10.00;;
62941;SDS011;49042;47.318;19.874;2022-11-20T01:36:19;19.25;;;9.52;;
62941;SDS011;49042;47.318;19.874;2022-11-20T01:39:23;16.70;;;9.40;;
62941;SDS011;49042;47.318;19.874;2022-11-20T01:42:26;18.50;;;9.20;;
62941;SDS011;49042;47.318;19.874;2022-11-20T01:46:00;19.48;;;9.98;;
62941;SDS011;49042;47.318;19.874;2022-11-20T01:52:16;16.83;;;9.32;;
62941;SDS011;49042;47.318;19.874;2022-11-20T01:55:22;19.62;;;9.77;;
62941;SDS011;49042;47.318;19.874;2022-11-20T01:58:31;24.12;;;10.43;;
62941;SDS011;49042;47.318;19.874;2022-11-20T02:01:36;22.98;;;9.48;;
62941;SDS011;49042;47.318;19.874;2022-11-20T02:04:40;16.92;;;9.27;;
62941;SDS011;49042;47.318;19.874;2022-11-20T02:07:42;17.58;;;9.10;;
62941;SDS011;49042;47.318;19.874;2022-11-20T02:10:54;21.87;;;9.98;;
62941;SDS011;49042;47.318;19.874;2022-11-20T02:13:56;17.70;;;9.05;;
62941;SDS011;49042;47.318;19.874;2022-11-20T02:16:58;15.98;;;9.02;;
62941;SDS011;49042;47.318;19.874;2022-11-20T02:19:59;16.83;;;9.50;;
62941;SDS011;49042;47.318;19.874;2022-11-20T02:23:05;22.77;;;10.60;;
62941;SDS011;49042;47.318;19.874;2022-11-20T02:26:13;15.63;;;9.57;;
62941;SDS011;49042;47.318;19.874;2022-11-20T02:29:19;17.73;;;9.80;;
62941;SDS011;49042;47.318;19.874;2022-11-20T02:32:35;21.65;;;10.40;;
62941;SDS011;49042;47.318;19.874;2022-11-20T02:35:39;20.75;;;11.30;;
62941;SDS011;49042;47.318;19.874;2022-11-20T02:38:43;22.05;;;9.98;;
62941;SDS011;49042;47.318;19.874;2022-11-20T02:41:45;21.85;;;10.13;;
62941;SDS011;49042;47.318;19.874;2022-11-20T02:44:47;18.92;;;10.75;;
62941;SDS011;49042;47.318;19.874;2022-11-20T02:47:49;20.50;;;10.82;;
62941;SDS011;49042;47.318;19.874;2022-11-20T02:50:51;19.62;;;9.88;;
62941;SDS011;49042;47.318;19.874;2022-11-20T02:53:53;23.70;;;10.88;;
62941;SDS011;49042;47.318;19.874;2022-11-20T02:56:55;19.77;;;11.65;;
62941;SDS011;49042;47.318;19.874;2022-11-20T02:59:56;23.75;;;12.23;;
62941;SDS011;49042;47.318;19.874;2022-11-20T03:02:58;24.33;;;10.38;;
62941;SDS011;49042;47.318;19.874;2022-11-20T03:06:00;22.40;;;11.38;;
62941;SDS011;49042;47.318;19.874;2022-11-20T03:09:01;22.45;;;12.35;;
62941;SDS011;49042;47.318;19.874;2022-11-20T03:12:03;23.45;;;11.88;;
62941;SDS011;49042;47.318;19.874;2022-11-20T03:15:05;23.33;;;11.23;;
62941;SDS011;49042;47.318;19.874;2022-11-20T03:18:07;23.05;;;12.13;;
62941;SDS011;49042;47.318;19.874;2022-11-20T03:21:09;28.52;;;12.75;;
62941;SDS011;49042;47.318;19.874;2022-11-20T03:24:13;21.02;;;11.25;;
62941;SDS011;49042;47.318;19.874;2022-11-20T03:27:15;21.90;;;11.27;;
62941;SDS011;49042;47.318;19.874;2022-11-20T03:30:16;20.05;;;12.07;;
62941;SDS011;49042;47.318;19.874;2022-11-20T03:33:18;24.33;;;12.63;;
62941;SDS011;49042;47.318;19.874;2022-11-20T03:36:20;23.90;;;11.80;;
62941;SDS011;49042;47.318;19.874;2022-11-20T03:39:22;23.80;;;11.40;;
62941;SDS011;49042;47.318;19.874;2022-11-20T03:42:24;22.77;;;11.45;;
62941;SDS011;49042;47.318;19.874;2022-11-20T03:45:44;20.48;;;11.15;;
62941;SDS011;49042;47.318;19.874;2022-11-20T03:48:46;23.92;;;11.85;;
62941;SDS011;49042;47.318;19.874;2022-11-20T03:51:52;26.62;;;12.65;;
62941;SDS011;49042;47.318;19.874;2022-11-20T03:54:53;24.17;;;12.02;;
62941;SDS011;49042;47.318;19.874;2022-11-20T03:57:55;25.65;;;12.82;;
62941;SDS011;49042;47.318;19.874;2022-11-20T04:00:57;21.85;;;12.32;;
62941;SDS011;49042;47.318;19.874;2022-11-20T04:03:58;23.98;;;12.75;;
62941;SDS011;49042;47.318;19.874;2022-11-20T04:07:00;23.80;;;13.05;;
62941;SDS011;49042;47.318;19.874;2022-11-20T04:10:02;23.60;;;13.38;;
62941;SDS011;49042;47.318;19.874;2022-11-20T04:13:04;29.70;;;13.55;;
62941;SDS011;49042;47.318;19.874;2022-11-20T04:16:06;26.60;;;14.02;;
62941;SDS011;49042;47.318;19.874;2022-11-20T04:19:10;30.73;;;14.57;;
62941;SDS011;49042;47.318;19.874;2022-11-20T04:22:13;28.08;;;14.77;;
62941;SDS011;49042;47.318;19.874;2022-11-20T04:25:14;28.30;;;14.00;;
62941;SDS011;49042;47.318;19.874;2022-11-20T04:28:16;33.17;;;14.87;;
62941;SDS011;49042;47.318;19.874;2022-11-20T04:31:19;26.50;;;14.30;;
62941;SDS011;49042;47.318;19.874;2022-11-20T04:34:28;28.30;;;15.20;;
62941;SDS011;49042;47.318;19.874;2022-11-20T04:37:30;28.15;;;14.00;;
62941;SDS011;49042;47.318;19.874;2022-11-20T04:40:31;24.80;;;14.23;;
62941;SDS011;49042;47.318;19.874;2022-11-20T04:43:33;27.65;;;14.05;;
62941;SDS011;49042;47.318;19.874;2022-11-20T04:46:36;29.75;;;14.68;;
62941;SDS011;49042;47.318;19.874;2022-11-20T04:49:39;30.23;;;14.32;;
62941;SDS011;49042;47.318;19.874;2022-11-20T04:52:43;31.27;;;14.63;;
62941;SDS011;49042;47.318;19.874;2022-11-20T04:55:45;25.02;;;13.20;;
62941;SDS011;49042;47.318;19.874;2022-11-20T04:58:47;27.85;;;14.35;;
62941;SDS011;49042;47.318;19.874;2022-11-20T05:01:49;28.52;;;14.73;;
62941;SDS011;49042;47.318;19.874;2022-11-20T05:04:50;34.65;;;17.55;;
62941;SDS011;49042;47.318;19.874;2022-11-20T05:07:52;41.60;;;18.87;;
62941;SDS011;49042;47.318;19.874;2022-11-20T05:10:58;37.60;;;19.10;;
62941;SDS011;49042;47.318;19.874;2022-11-20T05:14:01;34.15;;;17.27;;
62941;SDS011;49042;47.318;19.874;2022-11-20T05:17:03;27.80;;;15.88;;
62941;SDS011;49042;47.318;19.874;2022-11-20T05:20:04;29.87;;;14.98;;
62941;SDS011;49042;47.318;19.874;2022-11-20T05:23:06;30.50;;;15.38;;
62941;SDS011;49042;47.318;19.874;2022-11-20T05:26:12;25.77;;;13.98;;
62941;SDS011;49042;47.318;19.874;2022-11-20T05:29:16;34.88;;;15.82;;
62941;SDS011;49042;47.318;19.874;2022-11-20T05:32:17;39.13;;;16.50;;
62941;SDS011;49042;47.318;19.874;2022-11-20T05:35:19;29.15;;;15.65;;
62941;SDS011;49042;47.318;19.874;2022-11-20T05:38:21;33.80;;;18.00;;
62941;SDS011;49042;47.318;19.874;2022-11-20T05:41:22;30.50;;;16.98;;
62941;SDS011;49042;47.318;19.874;2022-11-20T05:44:24;31.77;;;16.73;;
62941;SDS011;49042;47.318;19.874;2022-11-20T05:47:26;33.10;;;16.42;;
62941;SDS011;49042;47.318;19.874;2022-11-20T05:50:28;38.38;;;17.05;;
62941;SDS011;49042;47.318;19.874;2022-11-20T05:53:31;30.23;;;16.40;;
62941;SDS011;49042;47.318;19.874;2022-11-20T05:56:34;26.35;;;14.32;;
62941;SDS011;49042;47.318;19.874;2022-11-20T05:59:36;30.75;;;13.90;;
62941;SDS011;49042;47.318;19.874;2022-11-20T06:02:37;32.85;;;15.05;;
62941;SDS011;49042;47.318;19.874;2022-11-20T06:05:39;33.75;;;15.88;;
62941;SDS011;49042;47.318;19.874;2022-11-20T06:08:41;32.92;;;16.17;;
62941;SDS011;49042;47.318;19.874;2022-11-20T06:11:42;33.63;;;16.55;;
62941;SDS011;49042;47.318;19.874;2022-11-20T06:14:44;35.50;;;16.45;;
62941;SDS011;49042;47.318;19.874;2022-11-20T06:17:46;40.00;;;16.77;;
62941;SDS011;49042;47.318;19.874;2022-11-20T06:20:47;39.70;;;17.92;;
62941;SDS011;49042;47.318;19.874;2022-11-20T06:23:49;40.08;;;17.40;;
62941;SDS011;49042;47.318;19.874;2022-11-20T06:26:53;39.72;;;17.73;;
62941;SDS011;49042;47.318;19.874;2022-11-20T06:29:54;35.20;;;16.95;;
62941;SDS011;49042;47.318;19.874;2022-11-20T06:32:56;41.95;;;19.30;;
62941;SDS011;49042;47.318;19.874;2022-11-20T06:35:58;37.05;;;18.48;;
62941;SDS011;49042;47.318;19.874;2022-11-20T06:39:05;38.97;;;16.95;;
62941;SDS011;49042;47.318;19.874;2022-11-20T06:42:07;39.85;;;20.17;;
62941;SDS011;49042;47.318;19.874;2022-11-20T06:45:09;40.30;;;18.67;;
62941;SDS011;49042;47.318;19.874;2022-11-20T06:48:10;37.55;;;18.58;;
62941;SDS011;49042;47.318;19.874;2022-11-20T06:51:12;41.10;;;19.62;;
62941;SDS011;49042;47.318;19.874;2022-11-20T06:54:14;37.92;;;19.75;;
62941;SDS011;49042;47.318;19.874;2022-11-20T06:57:16;47.78;;;22.98;;
62941;SDS011;49042;47.318;19.874;2022-11-20T07:00:18;46.72;;;24.55;;
62941;SDS011;49042;47.318;19.874;2022-11-20T07:03:19;38.22;;;20.45;;
62941;SDS011;49042;47.318;19.874;2022-11-20T07:06:21;36.00;;;17.35;;
62941;SDS011;49042;47.318;19.874;2022-11-20T07:09:22;34.55;;;17.12;;
62941;SDS011;49042;47.318;19.874;2022-11-20T07:12:24;36.03;;;18.23;;
62941;SDS011;49042;47.318;19.874;2022-11-20T07:15:26;34.58;;;17.42;;
62941;SDS011;49042;47.318;19.874;2022-11-20T07:18:28;35.17;;;17.05;;
62941;SDS011;49042;47.318;19.874;2022-11-20T07:21:30;32.75;;;15.50;;
62941;SDS011;49042;47.318;19.874;2022-11-20T07:24:31;31.55;;;15.27;;
62941;SDS011;49042;47.318;19.874;2022-11-20T07:27:33;33.38;;;17.70;;
62941;SDS011;49042;47.318;19.874;2022-11-20T07:30:35;37.35;;;18.73;;
62941;SDS011;49042;47.318;19.874;2022-11-20T07:33:37;33.50;;;18.12;;
62941;SDS011;49042;47.318;19.874;2022-11-20T07:36:39;34.58;;;18.67;;
62941;SDS011;49042;47.318;19.874;2022-11-20T07:39:40;26.45;;;13.60;;
62941;SDS011;49042;47.318;19.874;2022-11-20T07:42:49;26.52;;;14.57;;
62941;SDS011;49042;47.318;19.874;2022-11-20T07:45:51;34.05;;;14.85;;
62941;SDS011;49042;47.318;19.874;2022-11-20T07:48:53;27.13;;;14.18;;
62941;SDS011;49042;47.318;19.874;2022-11-20T07:51:55;24.30;;;13.95;;
62941;SDS011;49042;47.318;19.874;2022-11-20T07:55:17;31.55;;;16.37;;
62941;SDS011;49042;47.318;19.874;2022-11-20T07:58:19;27.73;;;14.15;;
62941;SDS011;49042;47.318;19.874;2022-11-20T08:01:22;30.25;;;15.80;;
62941;SDS011;49042;47.318;19.874;2022-11-20T08:04:23;28.33;;;15.30;;
62941;SDS011;49042;47.318;19.874;2022-11-20T08:07:25;33.67;;;15.57;;
62941;SDS011;49042;47.318;19.874;2022-11-20T08:10:27;34.00;;;15.85;;
62941;SDS011;49042;47.318;19.874;2022-11-20T08:13:28;30.55;;;13.60;;
62941;SDS011;49042;47.318;19.874;2022-11-20T08:16:48;28.98;;;14.13;;
62941;SDS011;49042;47.318;19.874;2022-11-20T08:19:50;28.15;;;14.70;;
62941;SDS011;49042;47.318;19.874;2022-11-20T08:22:52;27.60;;;14.27;;
62941;SDS011;49042;47.318;19.874;2022-11-20T08:25:54;29.12;;;14.85;;
62941;SDS011;49042;47.318;19.874;2022-11-20T08:28:56;29.73;;;15.68;;
62941;SDS011;49042;47.318;19.874;2022-11-20T08:31:58;26.87;;;15.00;;
62941;SDS011;49042;47.318;19.874;2022-11-20T08:34:59;33.28;;;17.25;;
62941;SDS011;49042;47.318;19.874;2022-11-20T08:38:02;30.60;;;16.33;;
62941;SDS011;49042;47.318;19.874;2022-11-20T08:41:04;28.58;;;14.70;;
62941;SDS011;49042;47.318;19.874;2022-11-20T08:44:25;29.17;;;15.13;;
62941;SDS011;49042;47.318;19.874;2022-11-20T08:47:26;27.85;;;14.23;;
62941;SDS011;49042;47.318;19.874;2022-11-20T08:50:28;30.33;;;15.80;;
62941;SDS011;49042;47.318;19.874;2022-11-20T08:53:32;25.33;;;13.27;;
62941;SDS011;49042;47.318;19.874;2022-11-20T08:56:34;30.95;;;15.35;;
62941;SDS011;49042;47.318;19.874;2022-11-20T08:59:36;26.87;;;13.70;;
62941;SDS011;49042;47.318;19.874;2022-11-20T09:02:58;28.25;;;14.13;;
62941;SDS011;49042;47.318;19.874;2022-11-20T09:06:03;26.92;;;14.25;;
62941;SDS011;49042;47.318;19.874;2022-11-20T09:09:07;27.25;;;13.48;;
62941;SDS011;49042;47.318;19.874;2022-11-20T09:12:08;35.92;;;15.15;;
62941;SDS011;49042;47.318;19.874;2022-11-20T09:15:10;25.62;;;14.15;;
62941;SDS011;49042;47.318;19.874;2022-11-20T09:18:12;26.67;;;15.05;;
62941;SDS011;49042;47.318;19.874;2022-11-20T09:21:14;27.37;;;14.55;;
62941;SDS011;49042;47.318;19.874;2022-11-20T09:24:16;23.00;;;13.50;;
62941;SDS011;49042;47.318;19.874;2022-11-20T09:27:17;28.75;;;15.70;;
62941;SDS011;49042;47.318;19.874;2022-11-20T09:30:22;23.27;;;14.02;;
62941;SDS011;49042;47.318;19.874;2022-11-20T09:33:24;27.65;;;14.32;;
62941;SDS011;49042;47.318;19.874;2022-11-20T09:36:26;25.83;;;14.48;;
62941;SDS011;49042;47.318;19.874;2022-11-20T09:39:27;23.60;;;13.05;;
62941;SDS011;49042;47.318;19.874;2022-11-20T09:46:04;21.27;;;11.73;;
62941;SDS011;49042;47.318;19.874;2022-11-20T09:52:46;20.37;;;11.85;;
62941;SDS011;49042;47.318;19.874;2022-11-20T09:55:51;18.00;;;11.25;;
62941;SDS011;49042;47.318;19.874;2022-11-20T09:58:54;16.80;;;10.63;;
62941;SDS011;49042;47.318;19.874;2022-11-20T10:01:59;20.50;;;10.77;;
62941;SDS011;49042;47.318;19.874;2022-11-20T10:05:15;21.55;;;11.15;;
62941;SDS011;49042;47.318;19.874;2022-11-20T10:15:39;28.02;;;14.75;;
62941;SDS011;49042;47.318;19.874;2022-11-20T10:18:48;20.92;;;11.98;;
62941;SDS011;49042;47.318;19.874;2022-11-20T10:21:57;20.00;;;11.82;;
62941;SDS011;49042;47.318;19.874;2022-11-20T10:25:24;20.15;;;11.30;;
62941;SDS011;49042;47.318;19.874;2022-11-20T10:32:00;22.37;;;11.77;;
62941;SDS011;49042;47.318;19.874;2022-11-20T10:35:15;19.73;;;11.23;;
62941;SDS011;49042;47.318;19.874;2022-11-20T10:38:23;21.98;;;11.52;;
62941;SDS011;49042;47.318;19.874;2022-11-20T10:41:32;20.67;;;10.15;;
62941;SDS011;49042;47.318;19.874;2022-11-20T10:44:42;21.83;;;10.23;;
62941;SDS011;49042;47.318;19.874;2022-11-20T10:54:49;20.85;;;11.05;;
62941;SDS011;49042;47.318;19.874;2022-11-20T10:58:00;21.40;;;12.30;;
62941;SDS011;49042;47.318;19.874;2022-11-20T11:01:18;21.25;;;11.43;;
62941;SDS011;49042;47.318;19.874;2022-11-20T11:04:28;18.70;;;10.77;;
62941;SDS011;49042;47.318;19.874;2022-11-20T11:07:35;30.65;;;15.07;;
62941;SDS011;49042;47.318;19.874;2022-11-20T11:11:02;29.50;;;14.18;;
62941;SDS011;49042;47.318;19.874;2022-11-20T11:14:19;21.60;;;11.20;;
62941;SDS011;49042;47.318;19.874;2022-11-20T11:20:30;16.95;;;9.63;;
62941;SDS011;49042;47.318;19.874;2022-11-20T11:23:34;18.87;;;10.10;;
62941;SDS011;49042;47.318;19.874;2022-11-20T11:26:38;17.83;;;10.50;;
62941;SDS011;49042;47.318;19.874;2022-11-20T11:29:40;20.30;;;10.13;;
62941;SDS011;49042;47.318;19.874;2022-11-20T11:32:42;17.73;;;10.13;;
62941;SDS011;49042;47.318;19.874;2022-11-20T11:35:46;19.95;;;11.25;;
62941;SDS011;49042;47.318;19.874;2022-11-20T11:38:52;17.52;;;8.75;;
62941;SDS011;49042;47.318;19.874;2022-11-20T11:41:55;13.68;;;8.30;;
62941;SDS011;49042;47.318;19.874;2022-11-20T11:44:58;15.90;;;8.65;;
62941;SDS011;49042;47.318;19.874;2022-11-20T11:48:07;13.10;;;7.97;;
62941;SDS011;49042;47.318;19.874;2022-11-20T11:51:10;14.32;;;8.00;;
62941;SDS011;49042;47.318;19.874;2022-11-20T11:54:16;14.57;;;8.43;;
62941;SDS011;49042;47.318;19.874;2022-11-20T12:00:24;16.40;;;9.68;;
62941;SDS011;49042;47.318;19.874;2022-11-20T12:03:33;15.73;;;9.98;;
62941;SDS011;49042;47.318;19.874;2022-11-20T12:06:38;20.62;;;10.50;;
62941;SDS011;49042;47.318;19.874;2022-11-20T12:09:46;17.65;;;10.32;;
62941;SDS011;49042;47.318;19.874;2022-11-20T12:12:54;17.90;;;10.25;;
62941;SDS011;49042;47.318;19.874;2022-11-20T12:16:03;16.92;;;10.25;;
62941;SDS011;49042;47.318;19.874;2022-11-20T12:19:12;14.98;;;9.88;;
62941;SDS011;49042;47.318;19.874;2022-11-20T12:25:46;17.80;;;11.73;;
62941;SDS011;49042;47.318;19.874;2022-11-20T12:38:59;16.55;;;10.25;;
62941;SDS011;49042;47.318;19.874;2022-11-20T12:42:53;19.77;;;9.98;;
62941;SDS011;49042;47.318;19.874;2022-11-20T12:52:53;22.10;;;12.50;;
62941;SDS011;49042;47.318;19.874;2022-11-20T12:56:17;24.40;;;13.68;;
62941;SDS011;49042;47.318;19.874;2022-11-20T13:06:16;22.08;;;11.10;;
62941;SDS011;49042;47.318;19.874;2022-11-20T13:09:20;19.33;;;11.07;;
62941;SDS011;49042;47.318;19.874;2022-11-20T13:12:36;28.98;;;14.85;;
62941;SDS011;49042;47.318;19.874;2022-11-20T13:16:00;26.77;;;15.13;;
62941;SDS011;49042;47.318;19.874;2022-11-20T13:19:13;28.62;;;13.90;;
62941;SDS011;49042;47.318;19.874;2022-11-20T13:22:27;33.20;;;14.23;;
62941;SDS011;49042;47.318;19.874;2022-11-20T13:25:49;21.73;;;12.23;;
62941;SDS011;49042;47.318;19.874;2022-11-20T13:32:21;31.73;;;15.68;;
62941;SDS011;49042;47.318;19.874;2022-11-20T13:38:27;29.12;;;15.40;;
62941;SDS011;49042;47.318;19.874;2022-11-20T13:44:42;36.05;;;17.87;;
62941;SDS011;49042;47.318;19.874;2022-11-20T13:47:48;132.30;;;63.38;;
62941;SDS011;49042;47.318;19.874;2022-11-20T13:50:56;59.22;;;30.62;;
62941;SDS011;49042;47.318;19.874;2022-11-20T13:54:14;46.05;;;20.88;;
62941;SDS011;49042;47.318;19.874;2022-11-20T14:01:08;25.88;;;15.20;;
62941;SDS011;49042;47.318;19.874;2022-11-20T14:04:18;33.55;;;18.40;;
62941;SDS011;49042;47.318;19.874;2022-11-20T14:07:31;44.15;;;23.73;;
62941;SDS011;49042;47.318;19.874;2022-11-20T14:10:38;39.97;;;20.33;;
62941;SDS011;49042;47.318;19.874;2022-11-20T14:13:50;69.72;;;34.33;;
62941;SDS011;49042;47.318;19.874;2022-11-20T14:17:07;46.72;;;26.55;;
62941;SDS011;49042;47.318;19.874;2022-11-20T14:20:12;32.60;;;18.48;;
62941;SDS011;49042;47.318;19.874;2022-11-20T14:23:26;32.42;;;19.17;;
62941;SDS011;49042;47.318;19.874;2022-11-20T14:26:30;32.25;;;18.15;;
62941;SDS011;49042;47.318;19.874;2022-11-20T14:29:34;36.35;;;17.85;;
62941;SDS011;49042;47.318;19.874;2022-11-20T14:32:38;35.72;;;18.30;;
62941;SDS011;49042;47.318;19.874;2022-11-20T14:35:44;37.42;;;18.33;;
62941;SDS011;49042;47.318;19.874;2022-11-20T14:38:47;38.75;;;19.08;;
62941;SDS011;49042;47.318;19.874;2022-11-20T14:41:50;42.40;;;21.87;;
62941;SDS011;49042;47.318;19.874;2022-11-20T14:44:57;41.42;;;20.50;;
62941;SDS011;49042;47.318;19.874;2022-11-20T14:48:01;36.75;;;19.33;;
62941;SDS011;49042;47.318;19.874;2022-11-20T14:51:02;41.42;;;21.50;;
62941;SDS011;49042;47.318;19.874;2022-11-20T14:54:08;40.83;;;20.92;;
62941;SDS011;49042;47.318;19.874;2022-11-20T14:57:19;30.33;;;17.65;;
62941;SDS011;49042;47.318;19.874;2022-11-20T15:00:24;32.38;;;17.37;;
62941;SDS011;49042;47.318;19.874;2022-11-20T15:03:34;30.85;;;17.58;;
62941;SDS011;49042;47.318;19.874;2022-11-20T15:06:49;31.58;;;18.20;;
62941;SDS011;49042;47.318;19.874;2022-11-20T15:10:03;33.85;;;17.95;;
62941;SDS011;49042;47.318;19.874;2022-11-20T15:13:11;47.83;;;26.87;;
62941;SDS011;49042;47.318;19.874;2022-11-20T15:16:18;48.30;;;26.42;;
62941;SDS011;49042;47.318;19.874;2022-11-20T15:19:22;48.87;;;25.83;;
62941;SDS011;49042;47.318;19.874;2022-11-20T15:22:25;47.83;;;26.52;;
62941;SDS011;49042;47.318;19.874;2022-11-20T15:25:28;53.35;;;27.80;;
62941;SDS011;49042;47.318;19.874;2022-11-20T15:31:33;40.05;;;22.75;;
62941;SDS011;49042;47.318;19.874;2022-11-20T15:34:39;39.30;;;22.15;;
62941;SDS011;49042;47.318;19.874;2022-11-20T15:37:41;40.30;;;22.83;;
62941;SDS011;49042;47.318;19.874;2022-11-20T15:40:43;34.60;;;20.12;;
62941;SDS011;49042;47.318;19.874;2022-11-20T15:43:45;37.75;;;18.33;;
62941;SDS011;49042;47.318;19.874;2022-11-20T15:46:48;35.72;;;19.98;;
62941;SDS011;49042;47.318;19.874;2022-11-20T15:49:50;38.63;;;20.73;;
62941;SDS011;49042;47.318;19.874;2022-11-20T15:52:52;37.20;;;21.75;;
62941;SDS011;49042;47.318;19.874;2022-11-20T15:55:54;44.95;;;22.98;;
62941;SDS011;49042;47.318;19.874;2022-11-20T15:58:55;52.62;;;25.80;;
62941;SDS011;49042;47.318;19.874;2022-11-20T16:01:59;50.12;;;24.00;;
62941;SDS011;49042;47.318;19.874;2022-11-20T16:05:01;53.40;;;25.05;;
62941;SDS011;49042;47.318;19.874;2022-11-20T16:08:03;47.70;;;22.60;;
62941;SDS011;49042;47.318;19.874;2022-11-20T16:11:15;44.55;;;23.40;;
62941;SDS011;49042;47.318;19.874;2022-11-20T16:14:18;43.42;;;23.40;;
62941;SDS011;49042;47.318;19.874;2022-11-20T16:17:41;50.78;;;27.70;;
62941;SDS011;49042;47.318;19.874;2022-11-20T16:20:48;54.50;;;28.15;;
62941;SDS011;49042;47.318;19.874;2022-11-20T16:23:51;46.95;;;24.63;;
62941;SDS011;49042;47.318;19.874;2022-11-20T16:26:54;48.83;;;25.58;;
62941;SDS011;49042;47.318;19.874;2022-11-20T16:29:56;42.60;;;22.87;;
62941;SDS011;49042;47.318;19.874;2022-11-20T16:32:59;42.20;;;23.17;;
62941;SDS011;49042;47.318;19.874;2022-11-20T16:36:12;42.25;;;21.87;;
62941;SDS011;49042;47.318;19.874;2022-11-20T16:39:15;37.05;;;21.12;;
62941;SDS011;49042;47.318;19.874;2022-11-20T16:42:24;38.10;;;20.55;;
62941;SDS011;49042;47.318;19.874;2022-11-20T16:45:26;33.97;;;19.02;;
62941;SDS011;49042;47.318;19.874;2022-11-20T16:48:34;35.85;;;19.83;;
62941;SDS011;49042;47.318;19.874;2022-11-20T16:51:35;32.78;;;17.23;;
62941;SDS011;49042;47.318;19.874;2022-11-20T16:54:38;29.63;;;15.15;;
62941;SDS011;49042;47.318;19.874;2022-11-20T16:57:41;28.92;;;15.40;;
62941;SDS011;49042;47.318;19.874;2022-11-20T17:00:44;34.55;;;17.58;;
62941;SDS011;49042;47.318;19.874;2022-11-20T17:07:06;34.25;;;17.45;;
62941;SDS011;49042;47.318;19.874;2022-11-20T17:10:09;40.03;;;20.48;;
62941;SDS011;49042;47.318;19.874;2022-11-20T17:13:11;42.80;;;23.75;;
62941;SDS011;49042;47.318;19.874;2022-11-20T17:16:15;40.42;;;20.88;;
62941;SDS011;49042;47.318;19.874;2022-11-20T17:19:19;40.60;;;22.83;;
62941;SDS011;49042;47.318;19.874;2022-11-20T17:22:22;40.20;;;21.27;;
62941;SDS011;49042;47.318;19.874;2022-11-20T17:25:24;38.65;;;21.42;;
62941;SDS011;49042;47.318;19.874;2022-11-20T17:28:26;47.88;;;23.85;;
62941;SDS011;49042;47.318;19.874;2022-11-20T17:31:29;53.25;;;28.87;;
62941;SDS011;49042;47.318;19.874;2022-11-20T17:34:32;44.83;;;23.40;;
62941;SDS011;49042;47.318;19.874;2022-11-20T17:37:35;34.03;;;18.33;;
62941;SDS011;49042;47.318;19.874;2022-11-20T17:40:37;34.03;;;19.75;;
62941;SDS011;49042;47.318;19.874;2022-11-20T17:43:39;41.08;;;21.05;;
62941;SDS011;49042;47.318;19.874;2022-11-20T17:46:43;55.83;;;28.38;;
62941;SDS011;49042;47.318;19.874;2022-11-20T17:49:45;42.60;;;21.52;;
62941;SDS011;49042;47.318;19.874;2022-11-20T17:52:47;28.85;;;16.20;;
62941;SDS011;49042;47.318;19.874;2022-11-20T17:55:56;28.10;;;15.30;;
62941;SDS011;49042;47.318;19.874;2022-11-20T17:59:20;24.30;;;14.38;;
62941;SDS011;49042;47.318;19.874;2022-11-20T18:02:22;32.88;;;15.00;;
62941;SDS011;49042;47.318;19.874;2022-11-20T18:05:25;35.00;;;15.38;;
62941;SDS011;49042;47.318;19.874;2022-11-20T18:08:27;30.20;;;14.30;;
62941;SDS011;49042;47.318;19.874;2022-11-20T18:11:31;25.35;;;13.82;;
62941;SDS011;49042;47.318;19.874;2022-11-20T18:14:34;24.17;;;13.43;;
62941;SDS011;49042;47.318;19.874;2022-11-20T18:17:37;29.05;;;13.75;;
62941;SDS011;49042;47.318;19.874;2022-11-20T18:20:39;25.60;;;13.90;;
62941;SDS011;49042;47.318;19.874;2022-11-20T18:23:42;32.53;;;13.45;;
62941;SDS011;49042;47.318;19.874;2022-11-20T18:26:44;26.98;;;13.48;;
62941;SDS011;49042;47.318;19.874;2022-11-20T18:29:47;26.48;;;14.15;;
62941;SDS011;49042;47.318;19.874;2022-11-20T18:32:52;34.00;;;17.40;;
62941;SDS011;49042;47.318;19.874;2022-11-20T18:35:54;43.75;;;22.37;;
62941;SDS011;49042;47.318;19.874;2022-11-20T18:38:57;43.97;;;22.73;;
62941;SDS011;49042;47.318;19.874;2022-11-20T18:42:00;41.08;;;20.88;;
62941;SDS011;49042;47.318;19.874;2022-11-20T18:45:21;37.58;;;19.35;;
62941;SDS011;49042;47.318;19.874;2022-11-20T18:48:27;37.58;;;19.75;;
62941;SDS011;49042;47.318;19.874;2022-11-20T18:51:29;41.95;;;20.92;;
62941;SDS011;49042;47.318;19.874;2022-11-20T18:54:31;43.97;;;21.73;;
62941;SDS011;49042;47.318;19.874;2022-11-20T18:57:36;63.13;;;30.55;;
62941;SDS011;49042;47.318;19.874;2022-11-20T19:00:38;89.03;;;41.08;;
62941;SDS011;49042;47.318;19.874;2022-11-20T19:03:41;90.12;;;41.92;;
62941;SDS011;49042;47.318;19.874;2022-11-20T19:06:45;37.55;;;20.77;;
62941;SDS011;49042;47.318;19.874;2022-11-20T19:09:50;36.20;;;19.05;;